Time;durP1;ratioP1;P1;durP2;ratioP2;P2;SDS_P1;SDS_P2;PMS_P1;PMS_P2;Temp;Humidity;BMP_temperature;BMP_pressure;BME280_temperature;BME280_humidity;BME280_pressure;Samples;Min_cycle;Max_cycle;Signal;HPM_P1;HPM_P2
2021/04/18 00:01:44;;;;;;;17.70;10.02;;;;;;;8.56;50.44;101537.97;5078876;28;20028;-94
2021/04/18 00:04:09;;;;;;;19.30;10.63;;;;;;;8.45;51.03;101528.78;5078366;28;20017;-94
2021/04/18 00:06:36;;;;;;;17.98;10.07;;;;;;;8.40;51.08;101527.25;5078026;28;20486;-95
2021/04/18 00:09:04;;;;;;;19.13;10.00;;;;;;;8.46;51.46;101540.09;5078740;28;20115;-94
2021/04/18 00:11:30;;;;;;;17.00;9.48;;;;;;;8.41;50.91;101542.03;5078414;28;20039;-94
2021/04/18 00:13:56;;;;;;;14.77;9.55;;;;;;;8.26;50.80;101520.81;5078516;28;20032;-94
2021/04/18 00:16:21;;;;;;;16.20;10.10;;;;;;;8.39;51.57;101539.44;5079735;28;20051;-94
2021/04/18 00:18:47;;;;;;;18.67;10.68;;;;;;;8.30;51.35;101532.84;5079453;28;20028;-93
2021/04/18 00:21:12;;;;;;;16.80;10.55;;;;;;;8.73;50.81;101525.88;5079795;28;20043;-93
2021/04/18 00:23:37;;;;;;;18.95;10.68;;;;;;;9.34;48.77;101532.00;5079262;28;20489;-94
2021/04/18 00:26:03;;;;;;;15.43;10.35;;;;;;;9.48;48.07;101534.00;5078899;28;20031;-95
2021/04/18 00:28:29;;;;;;;17.13;9.80;;;;;;;9.42;48.11;101527.25;5078775;28;20028;-95
2021/04/18 00:30:55;;;;;;;16.63;10.20;;;;;;;9.42;47.69;101519.38;5078676;28;20038;-95
2021/04/18 00:33:20;;;;;;;17.75;10.30;;;;;;;9.46;47.71;101526.19;5078371;28;20024;-94
2021/04/18 00:35:45;;;;;;;14.10;9.43;;;;;;;9.45;47.45;101523.63;5079697;28;20023;-93
2021/04/18 00:38:11;;;;;;;17.95;9.85;;;;;;;9.51;46.93;101524.19;5079387;28;20114;-94
2021/04/18 00:40:38;;;;;;;15.13;10.43;;;;;;;9.49;47.62;101523.41;5082374;28;20085;-94
2021/04/18 00:43:04;;;;;;;17.52;10.57;;;;;;;9.49;47.33;101530.44;5082674;28;20020;-95
2021/04/18 00:45:30;;;;;;;15.10;10.02;;;;;;;9.34;47.65;101524.13;5095027;28;20027;-95
2021/04/18 00:47:56;;;;;;;16.27;10.68;;;;;;;9.31;47.10;101522.47;5101539;28;20028;-94
2021/04/18 00:50:25;;;;;;;16.35;9.60;;;;;;;9.40;47.17;101518.59;5094151;28;20020;-94
2021/04/18 00:52:52;;;;;;;17.40;9.80;;;;;;;9.38;47.64;101523.06;5078183;28;20436;-94
2021/04/18 00:55:19;;;;;;;15.63;10.52;;;;;;;9.37;47.12;101529.22;5078366;28;20027;-94
2021/04/18 00:57:44;;;;;;;20.88;11.23;;;;;;;9.32;47.39;101528.56;5100775;28;20035;-95
2021/04/18 01:00:10;;;;;;;18.13;10.68;;;;;;;9.24;47.90;101528.06;5102411;28;20015;-94
2021/04/18 01:02:36;;;;;;;14.65;9.52;;;;;;;9.17;48.12;101521.41;5091962;28;20540;-94
2021/04/18 01:05:03;;;;;;;15.82;9.60;;;;;;;9.20;48.01;101522.13;5088742;28;20085;-94
2021/04/18 01:07:28;;;;;;;17.25;9.63;;;;;;;9.11;48.22;101518.13;5092829;28;20032;-94
2021/04/18 01:09:54;;;;;;;16.25;9.30;;;;;;;9.08;48.16;101515.66;5091747;28;20081;-93
2021/04/18 01:12:20;;;;;;;18.30;10.13;;;;;;;9.01;48.65;101506.34;5094004;28;20046;-94
2021/04/18 01:14:45;;;;;;;20.50;10.32;;;;;;;8.90;48.35;101506.78;5078825;28;20547;-95
2021/04/18 01:17:11;;;;;;;18.25;10.68;;;;;;;8.85;48.86;101503.53;5077196;28;20496;-94
2021/04/18 01:19:36;;;;;;;18.60;10.82;;;;;;;8.88;48.51;101515.66;5077048;28;20020;-94
2021/04/18 01:22:02;;;;;;;15.60;10.43;;;;;;;8.87;48.50;101506.09;5077123;28;20021;-95
2021/04/18 01:24:28;;;;;;;17.98;10.98;;;;;;;8.87;48.97;101512.19;5077071;28;20024;-94
2021/04/18 01:26:53;;;;;;;19.70;11.57;;;;;;;8.87;48.80;101509.56;5076655;28;20034;-94
2021/04/18 01:29:19;;;;;;;20.58;11.48;;;;;;;8.81;49.29;101507.22;5077119;28;20032;-94
2021/04/18 01:31:44;;;;;;;17.27;10.55;;;;;;;8.80;48.59;101504.66;5076829;28;20490;-94
2021/04/18 01:34:14;;;;;;;17.30;10.30;;;;;;;8.79;48.84;101495.09;5076882;28;20024;-94
2021/04/18 01:36:43;;;;;;;19.98;10.95;;;;;;;8.79;49.42;101508.19;5076516;28;20024;-94
2021/04/18 01:39:09;;;;;;;18.63;11.27;;;;;;;8.67;49.55;101505.19;5076613;28;20487;-94
2021/04/18 01:41:34;;;;;;;15.98;10.23;;;;;;;8.61;49.76;101499.34;5076606;28;20054;-93
2021/04/18 01:44:00;;;;;;;18.35;10.27;;;;;;;8.57;49.90;101487.28;5076283;28;20026;-94
2021/04/18 01:46:25;;;;;;;17.13;11.32;;;;;;;8.59;49.94;101503.78;5076360;28;20028;-95
2021/04/18 01:48:51;;;;;;;16.58;10.95;;;;;;;8.42;49.68;101499.28;5076330;28;20051;-95
2021/04/18 01:51:17;;;;;;;15.15;9.93;;;;;;;8.47;50.10;101500.78;5076485;28;20048;-94
2021/04/18 01:53:42;;;;;;;17.95;10.60;;;;;;;8.43;50.40;101503.56;5076707;28;20424;-94
2021/04/18 01:56:08;;;;;;;20.42;10.88;;;;;;;8.43;50.05;101500.97;5076359;28;20170;-95
2021/04/18 01:58:34;;;;;;;18.23;11.07;;;;;;;8.42;49.88;101494.03;5077128;28;20032;-94
2021/04/18 02:01:00;;;;;;;15.68;10.90;;;;;;;8.41;50.17;101497.53;5094988;28;20033;-95
2021/04/18 02:03:25;;;;;;;17.05;11.52;;;;;;;8.43;50.17;101500.97;5100211;28;20031;-95
2021/04/18 02:05:51;;;;;;;20.05;11.38;;;;;;;8.31;50.44;101499.66;5090642;28;20489;-94
2021/04/18 02:08:16;;;;;;;19.45;11.80;;;;;;;8.32;49.83;101489.16;5080218;28;20028;-94
2021/04/18 02:10:42;;;;;;;21.33;12.25;;;;;;;8.31;50.18;101499.66;5076932;28;20504;-93
2021/04/18 02:13:07;;;;;;;19.60;10.60;;;;;;;8.26;50.47;101497.25;5076052;28;20024;-94
2021/04/18 02:15:32;;;;;;;18.85;11.40;;;;;;;8.32;49.81;101486.53;5076062;28;20031;-94
2021/04/18 02:17:58;;;;;;;22.42;11.50;;;;;;;8.26;50.29;101485.94;5076021;28;20066;-94
2021/04/18 02:20:23;;;;;;;18.15;11.15;;;;;;;8.03;50.57;101487.72;5087905;28;20004;-94
2021/04/18 02:22:49;;;;;;;17.75;11.23;;;;;;;7.90;51.09;101484.75;5100573;28;20024;-94
2021/04/18 02:25:14;;;;;;;19.42;12.38;;;;;;;7.56;51.18;101498.25;5101063;28;20028;-94
2021/04/18 02:27:43;;;;;;;23.27;12.77;;;;;;;7.56;52.51;101498.25;5100772;28;20047;-93
2021/04/18 02:30:09;;;;;;;20.25;13.00;;;;;;;7.81;52.18;101489.47;5100747;28;20004;-94
2021/04/18 02:32:34;;;;;;;18.27;12.88;;;;;;;7.96;50.86;101491.50;5100689;28;20370;-93
2021/04/18 02:35:01;;;;;;;19.13;11.98;;;;;;;8.07;50.90;101493.66;5100885;28;20039;-94
2021/04/18 02:37:27;;;;;;;18.02;11.60;;;;;;;8.18;50.74;101494.09;5100401;28;20012;-94
2021/04/18 02:39:53;;;;;;;23.58;13.25;;;;;;;8.17;50.70;101494.16;5093483;28;20036;-94
2021/04/18 02:42:18;;;;;;;18.42;12.73;;;;;;;8.11;50.89;101497.88;5079874;28;20019;-93
2021/04/18 02:44:43;;;;;;;20.45;13.15;;;;;;;7.94;51.20;101494.16;5080320;28;20040;-94
2021/04/18 02:47:09;;;;;;;20.38;12.38;;;;;;;7.97;51.40;101482.72;5082492;28;20024;-95
2021/04/18 02:49:35;;;;;;;20.08;12.00;;;;;;;7.95;51.45;101485.38;5083841;28;20024;-94
2021/04/18 02:52:00;;;;;;;20.58;12.27;;;;;;;7.98;51.42;101499.25;5086139;28;20592;-94
2021/04/18 02:54:25;;;;;;;17.55;10.88;;;;;;;7.90;51.39;101487.34;5084780;28;20074;-94
2021/04/18 02:56:51;;;;;;;18.83;12.63;;;;;;;7.86;51.35;101480.53;5091321;28;20057;-93
2021/04/18 02:59:16;;;;;;;20.40;12.05;;;;;;;7.70;52.23;101498.59;5092503;28;20032;-94
2021/04/18 03:01:42;;;;;;;21.17;12.15;;;;;;;7.73;52.06;101505.47;5099543;28;20004;-93
2021/04/18 03:04:08;;;;;;;17.73;11.73;;;;;;;7.83;51.59;101500.72;5104315;28;20039;-93
2021/04/18 03:06:34;;;;;;;16.85;11.15;;;;;;;7.87;51.57;101502.31;5099488;28;20060;-94
2021/04/18 03:09:01;;;;;;;23.35;13.25;;;;;;;7.83;51.75;101500.72;5082354;28;20061;-93
2021/04/18 03:11:26;;;;;;;21.75;13.30;;;;;;;7.68;52.23;101484.72;5079428;28;20286;-93
2021/04/18 03:13:52;;;;;;;20.50;13.43;;;;;;;7.77;52.16;101499.19;5079824;28;20278;-93
2021/04/18 03:16:18;;;;;;;22.33;13.95;;;;;;;7.76;52.17;101494.91;5079289;28;20028;-93
2021/04/18 03:18:43;;;;;;;20.33;13.18;;;;;;;7.78;52.12;101487.84;5079263;28;20020;-93
2021/04/18 03:21:09;;;;;;;19.23;12.80;;;;;;;7.73;52.38;101489.78;5079292;28;20031;-93
2021/04/18 03:23:34;;;;;;;20.05;12.77;;;;;;;7.67;52.64;101482.16;5079022;28;20087;-94
2021/04/18 03:25:59;;;;;;;23.83;14.40;;;;;;;7.62;53.04;101487.59;5078699;28;20020;-92
2021/04/18 03:28:25;;;;;;;28.98;14.27;;;;;;;7.53;53.14;101487.94;5073602;22;20591;-90
2021/04/18 03:30:51;;;;;;;23.80;13.57;;;;;;;7.62;52.95;101491.94;4993089;28;20045;-90
2021/04/18 03:33:16;;;;;;;19.92;13.55;;;;;;;7.68;52.90;101491.69;5008144;28;20033;-90
2021/04/18 03:35:42;;;;;;;20.30;13.43;;;;;;;7.58;53.54;101485.13;4993355;28;20052;-89
2021/04/18 03:38:09;;;;;;;21.55;15.40;;;;;;;7.63;53.71;101491.03;4993034;28;20026;-89
2021/04/18 03:40:35;;;;;;;21.90;13.68;;;;;;;7.60;53.47;101478.06;4991309;28;20424;-89
2021/04/18 03:43:01;;;;;;;21.55;14.20;;;;;;;7.74;53.13;101475.78;4994014;28;20030;-89
2021/04/18 03:45:26;;;;;;;23.88;14.38;;;;;;;7.73;53.05;101474.09;4993309;28;20080;-89
2021/04/18 03:47:52;;;;;;;18.35;13.82;;;;;;;7.69;53.18;101477.75;4992604;28;20066;-89
2021/04/18 03:50:17;;;;;;;24.15;14.45;;;;;;;7.71;53.08;101481.97;4992723;28;20050;-90
2021/04/18 03:52:43;;;;;;;21.98;14.30;;;;;;;7.75;53.21;101482.72;4993079;28;20027;-89
2021/04/18 03:55:10;;;;;;;24.98;13.40;;;;;;;7.72;53.30;101468.00;4992728;28;20102;-89
2021/04/18 03:57:35;;;;;;;21.30;13.43;;;;;;;7.67;52.95;101469.09;4992274;28;20026;-89
2021/04/18 04:00:00;;;;;;;22.95;14.05;;;;;;;7.68;53.22;101483.84;4990592;28;20033;-89
2021/04/18 04:02:26;;;;;;;23.52;15.02;;;;;;;7.65;53.92;101477.00;4992470;28;20027;-90
2021/04/18 04:04:51;;;;;;;22.83;14.80;;;;;;;7.63;53.40;101464.91;4992445;28;20062;-89
2021/04/18 04:07:16;;;;;;;20.20;14.10;;;;;;;7.63;53.33;101470.97;4990849;28;20030;-89
2021/04/18 04:09:42;;;;;;;19.90;14.35;;;;;;;7.69;53.80;101475.97;4990846;28;20046;-89
2021/04/18 04:12:07;;;;;;;21.70;13.98;;;;;;;7.69;53.35;101473.34;4991024;28;20061;-89
2021/04/18 04:14:33;;;;;;;22.45;14.63;;;;;;;7.68;53.75;101476.88;4992441;28;20473;-90
2021/04/18 04:16:58;;;;;;;21.15;14.63;;;;;;;7.68;53.78;101474.28;4992132;28;20037;-89
2021/04/18 04:19:23;;;;;;;22.95;14.38;;;;;;;7.63;53.78;101467.53;4992285;28;20072;-89
2021/04/18 04:21:49;;;;;;;22.38;16.20;;;;;;;7.60;53.91;101463.25;4992303;28;20109;-89
2021/04/18 04:24:14;;;;;;;22.55;14.30;;;;;;;7.60;53.77;101478.91;4991964;28;20384;-89
2021/04/18 04:26:40;;;;;;;27.45;15.57;;;;;;;7.67;53.82;101475.16;4991901;28;20026;-89
2021/04/18 04:29:05;;;;;;;24.90;15.80;;;;;;;7.58;54.26;101472.91;4992433;28;20476;-89
2021/04/18 04:31:30;;;;;;;28.05;16.45;;;;;;;7.61;54.41;101470.19;4991773;28;20034;-89
2021/04/18 04:33:56;;;;;;;26.50;15.05;;;;;;;7.70;54.15;101466.34;4992156;28;20113;-89
2021/04/18 04:36:21;;;;;;;20.92;14.80;;;;;;;7.60;54.14;101476.31;4992339;28;20034;-89
2021/04/18 04:38:47;;;;;;;24.02;14.10;;;;;;;7.57;54.37;101475.59;4991862;28;20037;-89
2021/04/18 04:41:13;;;;;;;24.40;15.82;;;;;;;7.44;54.76;101457.75;4991890;28;20038;-90
2021/04/18 04:43:38;;;;;;;24.88;15.05;;;;;;;7.54;54.54;101477.41;4992065;28;20113;-90
2021/04/18 04:46:03;;;;;;;23.80;15.55;;;;;;;7.47;54.65;101462.88;4991965;28;20022;-90
2021/04/18 04:48:29;;;;;;;26.50;15.18;;;;;;;7.45;54.64;101467.31;4991694;28;20018;-89
2021/04/18 04:50:54;;;;;;;26.88;15.88;;;;;;;7.48;54.40;101475.00;4991830;28;20031;-90
2021/04/18 04:53:19;;;;;;;27.30;16.10;;;;;;;7.47;54.54;101465.50;4991872;28;20034;-89
2021/04/18 04:55:47;;;;;;;24.50;15.90;;;;;;;7.49;54.91;101481.97;4991646;28;20488;-90
2021/04/18 04:58:12;;;;;;;19.70;14.13;;;;;;;7.42;54.86;101470.03;4991144;28;20030;-90
2021/04/18 05:00:38;;;;;;;24.67;15.20;;;;;;;7.53;54.64;101482.69;4991598;28;20023;-90
2021/04/18 05:03:03;;;;;;;24.80;16.02;;;;;;;7.62;54.97;101476.25;4991917;28;20022;-89
2021/04/18 05:05:29;;;;;;;25.50;16.48;;;;;;;7.52;54.99;101479.25;4992147;28;20026;-90
2021/04/18 05:07:54;;;;;;;24.77;15.65;;;;;;;7.50;54.83;101473.22;4990421;28;20037;-90
2021/04/18 05:10:20;;;;;;;23.08;15.88;;;;;;;7.44;54.73;101468.19;4990985;28;20026;-90
2021/04/18 05:12:45;;;;;;;23.73;15.48;;;;;;;7.36;54.96;101470.25;4990749;28;20044;-90
2021/04/18 05:15:11;;;;;;;39.40;18.08;;;;;;;7.52;54.79;101481.84;4992309;28;20048;-90
2021/04/18 05:17:37;;;;;;;25.30;15.48;;;;;;;7.52;54.60;101471.41;4995118;28;20035;-90
2021/04/18 05:20:03;;;;;;;26.20;17.08;;;;;;;7.57;54.58;101478.22;4996989;28;20529;-89
2021/04/18 05:22:28;;;;;;;28.33;15.90;;;;;;;7.54;54.42;101474.81;5002516;28;20026;-90
2021/04/18 05:24:53;;;;;;;23.23;15.98;;;;;;;7.54;54.59;101484.38;5004188;28;20037;-89
2021/04/18 05:27:19;;;;;;;22.98;14.38;;;;;;;7.52;54.66;101467.91;5003793;28;20030;-90
2021/04/18 05:29:45;;;;;;;25.52;15.73;;;;;;;7.64;54.83;101475.31;4991827;28;20038;-90
2021/04/18 05:32:10;;;;;;;24.98;15.90;;;;;;;7.58;55.06;101485.13;5005736;28;20252;-91
2021/04/18 05:34:36;;;;;;;28.73;16.10;;;;;;;7.60;55.04;101478.06;5011095;28;20030;-90
2021/04/18 05:37:02;;;;;;;26.17;16.85;;;;;;;7.60;54.74;101472.84;5010706;28;20022;-90
2021/04/18 05:40:53;;;;;;;27.92;15.45;;;;;;;7.41;56.28;101473.56;5116811;27;20375;-92
2021/04/18 05:43:18;;;;;;;22.05;15.75;;;;;;;7.46;56.68;101491.66;5086980;28;20043;-92
2021/04/18 05:45:44;;;;;;;21.38;14.98;;;;;;;6.89;58.66;101496.34;5052448;28;20321;-92
2021/04/18 05:48:10;;;;;;;22.80;15.43;;;;;;;6.32;61.34;101480.88;5052726;28;20029;-92
2021/04/18 05:50:35;;;;;;;24.10;15.30;;;;;;;6.32;62.67;101491.31;5055862;28;20395;-92
2021/04/18 05:53:00;;;;;;;23.15;16.05;;;;;;;6.36;62.65;101486.84;5067160;28;20024;-92
2021/04/18 05:55:26;;;;;;;22.33;14.90;;;;;;;6.51;63.28;101491.53;5072265;28;20029;-92
2021/04/18 05:57:52;;;;;;;26.15;17.35;;;;;;;6.62;62.96;101493.78;5089248;28;20047;-92
2021/04/18 06:00:18;;;;;;;25.48;16.20;;;;;;;6.85;62.49;101499.97;5069863;28;20542;-92
2021/04/18 06:02:43;;;;;;;22.83;15.27;;;;;;;6.89;62.57;101480.66;5082707;28;20099;-92
2021/04/18 06:05:09;;;;;;;21.90;15.82;;;;;;;7.07;61.91;101495.69;5083570;28;20708;-92
2021/04/18 06:07:35;;;;;;;23.98;16.02;;;;;;;7.09;61.20;101504.34;5053205;28;20024;-92
2021/04/18 06:10:01;;;;;;;20.10;15.35;;;;;;;7.14;60.66;101486.72;5085662;28;20028;-92
2021/04/18 06:12:26;;;;;;;22.10;15.85;;;;;;;7.16;60.89;101497.13;5080457;28;20055;-92
2021/04/18 06:14:52;;;;;;;21.50;14.27;;;;;;;7.28;60.42;101493.22;5083614;28;20123;-93
2021/04/18 06:17:18;;;;;;;21.88;15.30;;;;;;;7.28;60.41;101488.81;5051191;28;20086;-93
2021/04/18 06:19:43;;;;;;;20.45;15.27;;;;;;;7.38;60.48;101489.34;5051460;28;20505;-92
2021/04/18 06:22:08;;;;;;;22.17;15.38;;;;;;;7.43;60.75;101504.88;5082987;28;20437;-93
2021/04/18 06:24:34;;;;;;;23.02;16.60;;;;;;;7.50;59.33;101503.72;5071407;28;20028;-93
2021/04/18 06:26:59;;;;;;;25.77;16.27;;;;;;;7.64;59.17;101503.19;5070610;28;20032;-93
2021/04/18 06:29:26;;;;;;;22.25;15.60;;;;;;;7.72;59.32;101499.38;5087046;22;20044;-95
2021/04/18 06:31:52;;;;;;;24.40;15.45;;;;;;;7.73;59.39;101487.16;5080975;28;20035;-96
2021/04/18 06:34:22;;;;;;;23.23;15.05;;;;;;;7.91;59.41;101488.19;5083267;28;20100;-92
2021/04/18 06:36:47;;;;;;;23.25;15.43;;;;;;;7.89;58.93;101479.56;5049902;28;20499;-93
2021/04/18 06:39:13;;;;;;;23.50;15.43;;;;;;;8.09;58.09;101491.84;5031554;28;20029;-93
2021/04/18 06:41:39;;;;;;;22.42;16.15;;;;;;;8.24;57.31;101486.00;5038891;28;20107;-93
2021/04/18 06:44:04;;;;;;;20.65;15.27;;;;;;;8.81;56.27;101490.66;5070899;28;20032;-92
2021/04/18 06:46:32;;;;;;;26.98;15.20;;;;;;;10.57;52.40;101488.59;5066018;28;20020;-91
2021/04/18 06:48:59;;;;;;;19.98;14.57;;;;;;;11.94;49.40;101486.56;5050857;28;20475;-94
2021/04/18 06:51:25;;;;;;;23.85;14.10;;;;;;;12.99;46.15;101486.56;5045141;28;20155;-92
2021/04/18 06:53:50;;;;;;;19.42;13.90;;;;;;;13.84;44.00;101493.59;5051915;28;20107;-90
2021/04/18 06:56:15;;;;;;;20.77;13.25;;;;;;;14.76;40.25;101494.56;5047205;28;20508;-91
2021/04/18 06:58:41;;;;;;;21.50;13.98;;;;;;;15.40;38.50;101480.44;5066670;28;20059;-91
2021/04/18 07:01:06;;;;;;;22.00;13.18;;;;;;;15.79;36.94;101486.53;5059057;28;20569;-91
2021/04/18 07:03:32;;;;;;;21.23;13.35;;;;;;;16.30;36.40;101486.28;5075391;28;20020;-91
2021/04/18 07:05:58;;;;;;;19.20;13.20;;;;;;;17.04;34.75;101484.19;5077015;28;20025;-91
2021/04/18 07:08:31;;;;;;;19.75;13.10;;;;;;;16.16;35.79;101483.81;5075612;28;20516;-90
2021/04/18 07:11:14;;;;;;;19.23;13.88;;;;;;;16.62;35.57;101489.13;5057257;28;20020;-91
2021/04/18 07:13:42;;;;;;;16.75;11.63;;;;;;;16.74;35.49;101478.56;5056981;28;20386;-92
2021/04/18 07:16:28;;;;;;;21.33;12.35;;;;;;;17.68;34.31;101484.50;5074953;28;20025;-91
2021/04/18 07:18:54;;;;;;;17.48;11.13;;;;;;;18.08;33.33;101483.91;5058175;28;20028;-90
2021/04/18 07:21:21;;;;;;;21.10;12.18;;;;;;;18.59;32.00;101478.69;5072710;28;20088;-89
2021/04/18 07:23:47;;;;;;;16.40;11.35;;;;;;;18.62;32.51;101489.09;5053630;28;20043;-91
2021/04/18 07:26:16;;;;;;;18.02;12.48;;;;;;;19.09;31.31;101493.13;5039125;28;20507;-92
2021/04/18 07:28:41;;;;;;;23.75;11.35;;;;;;;19.37;30.84;101481.78;5049124;23;20127;-90
2021/04/18 07:31:06;;;;;;;17.23;12.55;;;;;;;19.46;30.58;101471.28;5054568;28;20544;-90
2021/04/18 07:33:32;;;;;;;13.98;10.60;;;;;;;19.91;29.75;101486.81;5053484;28;20029;-90
2021/04/18 07:35:57;;;;;;;20.23;10.85;;;;;;;20.01;28.92;101463.66;5035632;28;20090;-89
2021/04/18 07:38:28;;;;;;;14.60;10.70;;;;;;;20.08;29.27;101472.78;5049995;28;20024;-90
2021/04/18 07:41:18;;;;;;;18.52;11.50;;;;;;;20.71;28.43;101455.44;5034175;28;20036;-90
2021/04/18 07:43:45;;;;;;;17.67;11.18;;;;;;;20.82;28.62;101467.81;5034031;28;20061;-88
2021/04/18 07:46:11;;;;;;;17.27;11.35;;;;;;;20.79;28.01;101463.56;5033605;28;20060;-89
2021/04/18 07:48:37;;;;;;;14.32;10.88;;;;;;;21.62;26.99;101465.47;5016571;28;20024;-92
2021/04/18 07:51:03;;;;;;;16.92;11.10;;;;;;;21.56;27.15;101462.41;5016676;28;20032;-91
2021/04/18 07:53:28;;;;;;;16.63;11.15;;;;;;;21.47;27.48;101463.31;5033299;28;20029;-91
2021/04/18 07:55:54;;;;;;;15.15;10.95;;;;;;;22.01;26.65;101466.00;5028229;28;20443;-91
2021/04/18 07:58:20;;;;;;;20.60;13.30;;;;;;;22.08;27.18;101459.06;5037180;28;20033;-91
2021/04/18 08:00:45;;;;;;;19.52;13.05;;;;;;;22.36;26.97;101456.31;5035783;28;20026;-91
2021/04/18 08:03:14;;;;;;;18.33;11.68;;;;;;;23.20;26.08;101460.16;5057300;28;20060;-90
2021/04/18 08:05:40;;;;;;;22.70;10.52;;;;;;;23.32;25.80;101471.41;5057000;28;20089;-91
2021/04/18 08:08:14;;;;;;;15.75;11.38;;;;;;;23.70;24.97;101464.66;5031278;28;20014;-92
2021/04/18 08:10:49;;;;;;;18.63;12.35;;;;;;;23.72;25.37;101468.03;5040693;28;20022;-91
2021/04/18 08:13:22;;;;;;;15.18;10.93;;;;;;;23.83;24.98;101474.94;5057175;28;20024;-91
2021/04/18 08:15:58;;;;;;;18.27;9.60;;;;;;;24.54;24.08;101462.72;5063228;28;20016;-90
2021/04/18 08:18:42;;;;;;;14.48;10.73;;;;;;;24.68;23.67;101457.66;5071180;28;20025;-92
2021/04/18 08:21:30;;;;;;;16.35;11.05;;;;;;;24.91;23.95;101466.66;5041298;28;20041;-91
2021/04/18 08:23:56;;;;;;;13.68;10.75;;;;;;;25.26;22.79;101456.50;5058167;28;20033;-90
2021/04/18 08:26:23;;;;;;;12.35;10.15;;;;;;;25.37;22.80;101449.03;5067582;28;20047;-90
2021/04/18 08:28:51;;;;;;;11.90;9.82;;;;;;;25.43;23.09;101448.31;5061320;28;20021;-90
2021/04/18 08:31:18;;;;;;;14.25;10.07;;;;;;;25.84;22.94;101453.44;5056407;28;20021;-90
2021/04/18 08:33:46;;;;;;;13.00;9.30;;;;;;;25.90;22.58;101468.88;5058256;28;20081;-91
2021/04/18 08:36:14;;;;;;;11.75;8.55;;;;;;;25.90;22.58;101458.09;5057029;28;20013;-91
2021/04/18 08:38:41;;;;;;;12.60;9.57;;;;;;;25.79;22.72;101458.50;5058084;28;20055;-90
2021/04/18 08:41:11;;;;;;;15.57;10.75;;;;;;;25.23;23.19;101464.88;5057621;28;20013;-91
2021/04/18 08:43:37;;;;;;;14.90;10.57;;;;;;;24.75;24.45;101466.72;5056944;28;20026;-91
2021/04/18 08:46:02;;;;;;;14.63;10.32;;;;;;;25.33;23.40;101465.50;5057961;28;20040;-89
2021/04/18 08:48:28;;;;;;;21.38;10.02;;;;;;;25.13;24.05;101466.91;5050212;28;20033;-89
2021/04/18 08:50:53;;;;;;;12.57;9.32;;;;;;;25.37;23.99;101467.84;5031549;28;20018;-90
2021/04/18 08:53:18;;;;;;;11.85;9.63;;;;;;;26.47;22.90;101465.72;5025793;28;20025;-90
2021/04/18 08:56:10;;;;;;;19.65;10.50;;;;;;;26.00;23.35;101464.09;5022306;28;20025;-90
2021/04/18 08:58:37;;;;;;;;;;;;;;;26.93;21.19;101463.91;5031378;28;20042;-90
2021/04/18 09:01:10;;;;;;;10.00;8.73;;;;;;;27.47;21.44;101459.03;5032376;28;19913;-90
2021/04/18 09:03:38;;;;;;;11.63;8.95;;;;;;;28.23;19.96;101465.81;5027791;28;20475;-90
2021/04/18 09:06:09;;;;;;;9.90;7.57;;;;;;;28.43;19.98;101458.69;5028050;28;20040;-82
2021/04/18 09:08:50;;;;;;;11.60;8.93;;;;;;;27.97;19.89;101452.94;5030547;28;20488;-82
2021/04/18 09:11:16;;;;;;;14.02;8.90;;;;;;;26.83;21.19;101448.84;5031920;28;20029;-82
2021/04/18 09:13:54;;;;;;;11.55;8.73;;;;;;;27.19;20.76;101458.03;5029828;28;20036;-82
2021/04/18 09:16:24;;;;;;;10.30;7.90;;;;;;;28.19;20.03;101448.34;5031980;28;20033;-82
2021/04/18 09:18:50;;;;;;;11.20;7.77;;;;;;;28.40;19.54;101456.41;5031255;28;20041;-81
2021/04/18 09:21:15;;;;;;;14.55;6.97;;;;;;;29.00;19.05;101445.97;5032015;28;20537;-81
2021/04/18 09:23:56;;;;;;;12.43;7.35;;;;;;;29.39;18.44;101449.06;5022872;28;20569;-82
2021/04/18 09:26:21;;;;;;;9.73;7.47;;;;;;;28.49;19.15;101452.50;5031940;28;20387;-82
2021/04/18 09:29:27;;;;;;;10.15;7.38;;;;;;;30.04;17.64;101452.94;5027700;28;20377;-82
2021/04/18 09:32:08;;;;;;;9.95;7.65;;;;;;;29.44;17.73;101447.41;4973764;28;20453;-82
2021/04/18 09:34:36;;;;;;;9.82;7.70;;;;;;;29.13;19.66;101445.22;4970945;28;20031;-81
2021/04/18 09:37:06;;;;;;;8.70;7.40;;;;;;;29.08;19.45;101437.66;5004736;28;20036;-82
2021/04/18 09:39:34;;;;;;;11.10;8.20;;;;;;;28.64;20.16;101440.78;5011751;28;20503;-82
2021/04/18 09:42:00;;;;;;;12.95;8.10;;;;;;;28.42;20.84;101440.81;5011898;28;20029;-82
2021/04/18 09:44:40;;;;;;;11.70;8.73;;;;;;;28.49;19.35;101440.84;5011910;28;20029;-81
2021/04/18 09:47:15;;;;;;;11.20;7.30;;;;;;;28.58;20.37;101447.00;5008718;28;20033;-82
2021/04/18 09:49:49;;;;;;;10.82;7.05;;;;;;;28.49;19.62;101438.16;5032523;28;20036;-82
2021/04/18 09:52:33;;;;;;;10.55;7.70;;;;;;;29.26;18.40;101444.44;5013157;28;20484;-82
2021/04/18 09:55:14;;;;;;;10.82;7.63;;;;;;;29.39;19.48;101443.66;5013978;28;20036;-81
2021/04/18 09:57:45;;;;;;;14.85;8.48;;;;;;;29.34;19.54;101440.72;5023252;28;20034;-82
2021/04/18 10:00:15;;;;;;;10.35;7.55;;;;;;;29.98;19.31;101434.81;5015024;28;20135;-81
2021/04/18 10:02:40;;;;;;;10.93;8.10;;;;;;;29.20;18.46;101429.00;5031524;28;20084;-82
2021/04/18 10:05:14;;;;;;;8.43;7.15;;;;;;;30.30;18.02;101436.88;5029224;28;20029;-82
2021/04/18 10:07:40;;;;;;;8.77;6.63;;;;;;;30.72;17.73;101432.84;5011921;28;20021;-82
2021/04/18 10:10:07;;;;;;;12.73;8.65;;;;;;;30.59;17.74;101427.47;5027645;28;20121;-82
2021/04/18 10:12:49;;;;;;;13.48;7.80;;;;;;;31.23;17.15;101423.91;5031480;28;20265;-82
2021/04/18 10:15:14;;;;;;;14.68;8.25;;;;;;;30.04;18.37;101425.84;5020091;28;20091;-82
2021/04/18 10:17:40;;;;;;;12.90;7.72;;;;;;;28.23;18.83;101434.22;5012082;28;20596;-82
2021/04/18 10:20:07;;;;;;;12.50;8.30;;;;;;;27.80;19.34;101430.72;5020102;28;20033;-82
2021/04/18 10:22:32;;;;;;;10.98;7.90;;;;;;;26.63;20.28;101432.41;5011837;28;20125;-82
2021/04/18 10:24:58;;;;;;;11.93;8.35;;;;;;;25.91;20.73;101430.22;5028693;28;20056;-81
2021/04/18 10:27:26;;;;;;;11.88;8.63;;;;;;;24.77;22.20;101429.78;5032663;28;20030;-81
2021/04/18 10:29:53;;;;;;;13.30;8.57;;;;;;;25.53;21.63;101427.41;5034842;28;20026;-82
2021/04/18 10:32:20;;;;;;;11.30;9.07;;;;;;;25.37;21.97;101427.53;5035267;28;20448;-81
2021/04/18 10:34:47;;;;;;;11.77;8.70;;;;;;;25.29;21.79;101428.41;5030113;28;20034;-81
2021/04/18 10:37:13;;;;;;;12.30;8.75;;;;;;;24.78;21.93;101423.38;4997947;28;20452;-82
2021/04/18 10:39:39;;;;;;;13.93;9.23;;;;;;;24.84;22.12;101425.41;5017956;28;20067;-81
2021/04/18 10:42:05;;;;;;;9.35;7.93;;;;;;;25.21;21.74;101426.56;5017398;28;20373;-81
2021/04/18 10:44:31;;;;;;;12.95;8.38;;;;;;;25.79;22.33;101412.78;5017713;28;20109;-81
2021/04/18 10:46:58;;;;;;;11.82;8.35;;;;;;;26.84;21.56;101414.69;5030822;28;20078;-84
2021/04/18 10:49:24;;;;;;;12.73;8.60;;;;;;;27.59;19.45;101418.91;5000796;28;20391;-85
2021/04/18 10:51:50;;;;;;;11.55;8.02;;;;;;;27.53;20.20;101411.59;5034412;28;20064;-84
2021/04/18 10:54:17;;;;;;;10.25;7.13;;;;;;;27.19;19.38;101415.75;5034445;28;20022;-84
2021/04/18 10:56:49;;;;;;;13.13;6.95;;;;;;;27.98;17.57;101408.69;5035016;28;20599;-85
2021/04/18 10:59:15;;;;;;;10.57;7.93;;;;;;;26.98;20.41;101410.31;5034361;28;20025;-84
2021/04/18 11:01:41;;;;;;;9.05;7.70;;;;;;;27.96;20.93;101406.19;5017074;28;20033;-85
2021/04/18 11:04:07;;;;;;;15.40;8.65;;;;;;;28.29;19.48;101403.75;5034819;28;20021;-85
2021/04/18 11:06:32;;;;;;;8.40;7.47;;;;;;;29.22;18.85;101398.00;5020067;28;20041;-84
2021/04/18 11:08:57;;;;;;;10.02;7.80;;;;;;;27.44;19.47;101394.69;5014818;28;20072;-84
2021/04/18 11:11:24;;;;;;;13.23;8.32;;;;;;;27.41;19.00;101391.53;5032208;28;20029;-85
2021/04/18 11:13:50;;;;;;;14.05;9.55;;;;;;;27.47;19.70;101385.38;5034755;28;20052;-85
2021/04/18 11:16:16;;;;;;;12.88;8.48;;;;;;;27.78;20.15;101386.91;5018120;28;20029;-85
2021/04/18 11:18:41;;;;;;;9.65;7.72;;;;;;;28.90;19.44;101382.50;5021023;28;20036;-85